sensor_id;sensor_type;location;lat;lon;timestamp;temperature;humidity
698;DHT22;331;48.414;9.938;2023-04-06T00:00:02;4.20;98.40
698;DHT22;331;48.414;9.938;2023-04-06T00:02:35;4.20;98.30
698;DHT22;331;48.414;9.938;2023-04-06T00:05:02;4.10;98.40
698;DHT22;331;48.414;9.938;2023-04-06T00:07:29;4.20;98.40
698;DHT22;331;48.414;9.938;2023-04-06T00:09:56;4.10;98.20
698;DHT22;331;48.414;9.938;2023-04-06T00:12:23;4.10;98.40
698;DHT22;331;48.414;9.938;2023-04-06T00:14:50;4.10;98.30
698;DHT22;331;48.414;9.938;2023-04-06T00:17:18;4.10;98.30
698;DHT22;331;48.414;9.938;2023-04-06T00:19:45;4.10;98.40
698;DHT22;331;48.414;9.938;2023-04-06T00:22:12;4.10;98.60
698;DHT22;331;48.414;9.938;2023-04-06T00:24:39;4.00;98.30
698;DHT22;331;48.414;9.938;2023-04-06T00:27:06;4.10;98.50
698;DHT22;331;48.414;9.938;2023-04-06T00:29:33;4.00;98.20
698;DHT22;331;48.414;9.938;2023-04-06T00:32:00;4.00;98.40
698;DHT22;331;48.414;9.938;2023-04-06T00:34:28;4.00;98.30
698;DHT22;331;48.414;9.938;2023-04-06T00:36:55;4.00;98.20
698;DHT22;331;48.414;9.938;2023-04-06T00:39:23;4.00;98.10
698;DHT22;331;48.414;9.938;2023-04-06T00:41:50;3.90;98.10
698;DHT22;331;48.414;9.938;2023-04-06T00:44:18;3.90;98.20
698;DHT22;331;48.414;9.938;2023-04-06T00:46:45;3.90;97.90
698;DHT22;331;48.414;9.938;2023-04-06T00:49:12;3.90;98.10
698;DHT22;331;48.414;9.938;2023-04-06T00:51:41;3.90;98.20
698;DHT22;331;48.414;9.938;2023-04-06T00:54:08;3.90;98.40
698;DHT22;331;48.414;9.938;2023-04-06T00:56:35;3.80;98.00
698;DHT22;331;48.414;9.938;2023-04-06T00:59:02;3.80;98.00
698;DHT22;331;48.414;9.938;2023-04-06T01:01:30;3.80;98.10
698;DHT22;331;48.414;9.938;2023-04-06T01:04:01;3.80;98.10
698;DHT22;331;48.414;9.938;2023-04-06T01:06:31;3.80;98.10
698;DHT22;331;48.414;9.938;2023-04-06T01:09:02;3.80;98.10
698;DHT22;331;48.414;9.938;2023-04-06T01:11:29;3.80;98.20
698;DHT22;331;48.414;9.938;2023-04-06T01:13:57;3.80;98.10
698;DHT22;331;48.414;9.938;2023-04-06T01:16:44;3.80;97.90
698;DHT22;331;48.414;9.938;2023-04-06T01:19:17;3.80;98.00
698;DHT22;331;48.414;9.938;2023-04-06T01:21:47;3.70;98.10
698;DHT22;331;48.414;9.938;2023-04-06T01:24:32;3.70;97.80
698;DHT22;331;48.414;9.938;2023-04-06T01:27:15;3.70;98.00
698;DHT22;331;48.414;9.938;2023-04-06T01:30:00;3.70;97.90
698;DHT22;331;48.414;9.938;2023-04-06T01:32:38;3.70;97.70
698;DHT22;331;48.414;9.938;2023-04-06T01:35:06;3.70;97.90
698;DHT22;331;48.414;9.938;2023-04-06T01:37:38;3.70;98.00
698;DHT22;331;48.414;9.938;2023-04-06T01:40:11;3.70;98.10
698;DHT22;331;48.414;9.938;2023-04-06T01:42:50;3.60;98.00
698;DHT22;331;48.414;9.938;2023-04-06T01:45:26;3.60;98.10
698;DHT22;331;48.414;9.938;2023-04-06T01:47:58;3.60;98.10
698;DHT22;331;48.414;9.938;2023-04-06T01:50:26;3.60;98.20
698;DHT22;331;48.414;9.938;2023-04-06T01:52:54;3.60;98.20
698;DHT22;331;48.414;9.938;2023-04-06T01:55:23;3.60;98.10
698;DHT22;331;48.414;9.938;2023-04-06T01:58:13;3.60;98.20
698;DHT22;331;48.414;9.938;2023-04-06T02:00:40;3.60;98.20
698;DHT22;331;48.414;9.938;2023-04-06T02:03:08;3.60;98.20
698;DHT22;331;48.414;9.938;2023-04-06T02:05:35;3.60;98.10
698;DHT22;331;48.414;9.938;2023-04-06T02:08:10;3.50;98.10
698;DHT22;331;48.414;9.938;2023-04-06T02:10:39;3.50;98.10
698;DHT22;331;48.414;9.938;2023-04-06T02:13:15;3.50;98.20
698;DHT22;331;48.414;9.938;2023-04-06T02:15:47;3.50;98.20
698;DHT22;331;48.414;9.938;2023-04-06T02:18:14;3.50;98.20
698;DHT22;331;48.414;9.938;2023-04-06T02:20:43;3.50;98.20
698;DHT22;331;48.414;9.938;2023-04-06T02:23:09;3.50;98.20
698;DHT22;331;48.414;9.938;2023-04-06T02:25:37;3.50;98.20
698;DHT22;331;48.414;9.938;2023-04-06T02:28:05;3.50;98.20
698;DHT22;331;48.414;9.938;2023-04-06T02:30:32;3.40;98.20
698;DHT22;331;48.414;9.938;2023-04-06T02:32:59;3.40;98.20
698;DHT22;331;48.414;9.938;2023-04-06T02:35:27;3.40;98.10
698;DHT22;331;48.414;9.938;2023-04-06T02:37:55;3.40;98.20
698;DHT22;331;48.414;9.938;2023-04-06T02:40:22;3.40;98.20
698;DHT22;331;48.414;9.938;2023-04-06T02:42:49;3.40;98.20
698;DHT22;331;48.414;9.938;2023-04-06T02:45:22;3.30;98.20
698;DHT22;331;48.414;9.938;2023-04-06T02:47:49;3.40;98.20
698;DHT22;331;48.414;9.938;2023-04-06T02:50:16;3.30;98.10
698;DHT22;331;48.414;9.938;2023-04-06T02:52:52;3.30;98.10
698;DHT22;331;48.414;9.938;2023-04-06T02:55:20;3.30;98.20
698;DHT22;331;48.414;9.938;2023-04-06T02:57:46;3.30;98.20
698;DHT22;331;48.414;9.938;2023-04-06T03:00:14;3.30;98.10
698;DHT22;331;48.414;9.938;2023-04-06T03:02:43;3.30;98.20
698;DHT22;331;48.414;9.938;2023-04-06T03:05:13;3.30;98.20
698;DHT22;331;48.414;9.938;2023-04-06T03:07:45;3.30;98.20
698;DHT22;331;48.414;9.938;2023-04-06T03:10:20;3.30;98.20
698;DHT22;331;48.414;9.938;2023-04-06T03:12:48;3.20;98.10
698;DHT22;331;48.414;9.938;2023-04-06T03:15:37;3.20;98.10
698;DHT22;331;48.414;9.938;2023-04-06T03:18:14;3.20;98.10
698;DHT22;331;48.414;9.938;2023-04-06T03:20:45;3.20;98.20
698;DHT22;331;48.414;9.938;2023-04-06T03:23:14;3.20;98.20
698;DHT22;331;48.414;9.938;2023-04-06T03:25:43;3.20;98.20
698;DHT22;331;48.414;9.938;2023-04-06T03:28:14;3.20;98.20
698;DHT22;331;48.414;9.938;2023-04-06T03:30:54;3.20;98.20
698;DHT22;331;48.414;9.938;2023-04-06T03:33:43;3.10;98.20
698;DHT22;331;48.414;9.938;2023-04-06T03:36:16;3.10;98.20
698;DHT22;331;48.414;9.938;2023-04-06T03:38:43;3.10;98.20
698;DHT22;331;48.414;9.938;2023-04-06T03:41:12;3.10;98.20
698;DHT22;331;48.414;9.938;2023-04-06T03:43:44;3.10;98.10
698;DHT22;331;48.414;9.938;2023-04-06T03:46:11;3.10;98.10
698;DHT22;331;48.414;9.938;2023-04-06T03:48:38;3.10;98.00
698;DHT22;331;48.414;9.938;2023-04-06T03:51:07;3.00;98.00
698;DHT22;331;48.414;9.938;2023-04-06T03:53:34;3.10;98.20
698;DHT22;331;48.414;9.938;2023-04-06T03:56:02;3.10;98.20
698;DHT22;331;48.414;9.938;2023-04-06T03:58:29;3.00;98.10
698;DHT22;331;48.414;9.938;2023-04-06T04:00:56;3.00;98.20
698;DHT22;331;48.414;9.938;2023-04-06T04:03:23;3.00;98.10
698;DHT22;331;48.414;9.938;2023-04-06T04:05:52;3.00;98.10
698;DHT22;331;48.414;9.938;2023-04-06T04:08:20;3.00;98.10
698;DHT22;331;48.414;9.938;2023-04-06T04:10:47;3.00;98.20
698;DHT22;331;48.414;9.938;2023-04-06T04:13:14;3.00;98.20
698;DHT22;331;48.414;9.938;2023-04-06T04:15:45;3.00;98.10
698;DHT22;331;48.414;9.938;2023-04-06T04:18:13;2.90;98.00
698;DHT22;331;48.414;9.938;2023-04-06T04:20:40;2.90;98.00
698;DHT22;331;48.414;9.938;2023-04-06T04:23:09;2.90;98.20
698;DHT22;331;48.414;9.938;2023-04-06T04:25:37;2.90;98.10
698;DHT22;331;48.414;9.938;2023-04-06T04:28:04;2.90;98.00
698;DHT22;331;48.414;9.938;2023-04-06T04:30:31;2.90;98.10
698;DHT22;331;48.414;9.938;2023-04-06T04:32:58;2.90;98.10
698;DHT22;331;48.414;9.938;2023-04-06T04:35:26;2.80;98.10
698;DHT22;331;48.414;9.938;2023-04-06T04:37:53;2.80;98.00
698;DHT22;331;48.414;9.938;2023-04-06T04:40:20;2.80;98.10
698;DHT22;331;48.414;9.938;2023-04-06T04:42:57;2.80;98.00
698;DHT22;331;48.414;9.938;2023-04-06T04:45:29;2.80;98.10
698;DHT22;331;48.414;9.938;2023-04-06T04:47:59;2.80;98.00
698;DHT22;331;48.414;9.938;2023-04-06T04:50:34;2.80;98.00
698;DHT22;331;48.414;9.938;2023-04-06T04:53:01;2.80;98.00
698;DHT22;331;48.414;9.938;2023-04-06T04:55:31;2.80;98.00
698;DHT22;331;48.414;9.938;2023-04-06T04:58:00;2.70;98.00
698;DHT22;331;48.414;9.938;2023-04-06T05:00:50;2.80;98.00
698;DHT22;331;48.414;9.938;2023-04-06T05:03:18;2.70;98.00
698;DHT22;331;48.414;9.938;2023-04-06T05:05:53;2.70;98.00
698;DHT22;331;48.414;9.938;2023-04-06T05:08:24;2.70;98.00
698;DHT22;331;48.414;9.938;2023-04-06T05:10:51;2.70;98.00
698;DHT22;331;48.414;9.938;2023-04-06T05:13:20;2.70;98.00
698;DHT22;331;48.414;9.938;2023-04-06T05:15:48;2.70;98.00
698;DHT22;331;48.414;9.938;2023-04-06T05:18:25;2.70;98.00
698;DHT22;331;48.414;9.938;2023-04-06T05:20:53;2.60;98.00
698;DHT22;331;48.414;9.938;2023-04-06T05:23:26;2.60;98.00
698;DHT22;331;48.414;9.938;2023-04-06T05:25:53;2.60;98.00
698;DHT22;331;48.414;9.938;2023-04-06T05:28:23;2.60;98.00
698;DHT22;331;48.414;9.938;2023-04-06T05:30:51;2.60;98.00
698;DHT22;331;48.414;9.938;2023-04-06T05:33:18;2.60;98.10
698;DHT22;331;48.414;9.938;2023-04-06T05:36:00;2.60;98.10
698;DHT22;331;48.414;9.938;2023-04-06T05:38:29;2.60;98.10
698;DHT22;331;48.414;9.938;2023-04-06T05:41:00;2.60;98.10
698;DHT22;331;48.414;9.938;2023-04-06T05:43:32;2.60;98.10
698;DHT22;331;48.414;9.938;2023-04-06T05:46:00;2.60;98.10
698;DHT22;331;48.414;9.938;2023-04-06T05:48:27;2.60;98.20
698;DHT22;331;48.414;9.938;2023-04-06T05:50:54;2.60;98.20
698;DHT22;331;48.414;9.938;2023-04-06T05:53:27;2.50;98.20
698;DHT22;331;48.414;9.938;2023-04-06T05:56:00;2.50;98.20
698;DHT22;331;48.414;9.938;2023-04-06T05:58:27;2.50;98.20
698;DHT22;331;48.414;9.938;2023-04-06T06:00:57;2.50;98.20
698;DHT22;331;48.414;9.938;2023-04-06T06:03:25;2.50;98.20
698;DHT22;331;48.414;9.938;2023-04-06T06:05:59;2.50;98.30
698;DHT22;331;48.414;9.938;2023-04-06T06:08:29;2.50;98.20
698;DHT22;331;48.414;9.938;2023-04-06T06:10:59;2.50;98.30
698;DHT22;331;48.414;9.938;2023-04-06T06:13:26;2.50;98.30
698;DHT22;331;48.414;9.938;2023-04-06T06:15:54;2.50;98.30
698;DHT22;331;48.414;9.938;2023-04-06T06:18:23;2.50;98.30
698;DHT22;331;48.414;9.938;2023-04-06T06:20:52;2.50;98.40
698;DHT22;331;48.414;9.938;2023-04-06T06:23:19;2.50;98.40
698;DHT22;331;48.414;9.938;2023-04-06T06:25:46;2.50;98.40
698;DHT22;331;48.414;9.938;2023-04-06T06:28:13;2.50;98.40
698;DHT22;331;48.414;9.938;2023-04-06T06:30:40;2.50;98.40
698;DHT22;331;48.414;9.938;2023-04-06T06:33:07;2.50;98.50
698;DHT22;331;48.414;9.938;2023-04-06T06:35:35;2.40;98.50
698;DHT22;331;48.414;9.938;2023-04-06T06:38:04;2.40;98.50
698;DHT22;331;48.414;9.938;2023-04-06T06:40:32;2.40;98.50
698;DHT22;331;48.414;9.938;2023-04-06T06:42:59;2.40;98.50
698;DHT22;331;48.414;9.938;2023-04-06T06:45:33;2.40;98.60
698;DHT22;331;48.414;9.938;2023-04-06T06:48:00;2.40;98.60
698;DHT22;331;48.414;9.938;2023-04-06T06:50:27;2.40;98.60
698;DHT22;331;48.414;9.938;2023-04-06T06:52:55;2.40;98.60
698;DHT22;331;48.414;9.938;2023-04-06T06:55:22;2.40;98.70
698;DHT22;331;48.414;9.938;2023-04-06T06:57:49;2.40;98.70
698;DHT22;331;48.414;9.938;2023-04-06T07:00:16;2.40;98.80
698;DHT22;331;48.414;9.938;2023-04-06T07:02:45;2.40;98.80
698;DHT22;331;48.414;9.938;2023-04-06T07:05:12;2.40;98.80
698;DHT22;331;48.414;9.938;2023-04-06T07:07:39;2.40;98.80
698;DHT22;331;48.414;9.938;2023-04-06T07:10:08;2.40;98.90
698;DHT22;331;48.414;9.938;2023-04-06T07:12:37;2.40;99.00
698;DHT22;331;48.414;9.938;2023-04-06T07:15:04;2.40;99.00
698;DHT22;331;48.414;9.938;2023-04-06T07:17:33;2.40;99.00
698;DHT22;331;48.414;9.938;2023-04-06T07:20:00;2.40;99.00
698;DHT22;331;48.414;9.938;2023-04-06T07:22:27;2.40;99.00
698;DHT22;331;48.414;9.938;2023-04-06T07:24:53;2.40;99.00
698;DHT22;331;48.414;9.938;2023-04-06T07:27:22;2.40;99.10
698;DHT22;331;48.414;9.938;2023-04-06T07:29:49;2.50;99.10
698;DHT22;331;48.414;9.938;2023-04-06T07:32:16;2.50;99.10
698;DHT22;331;48.414;9.938;2023-04-06T07:34:43;2.50;99.20
698;DHT22;331;48.414;9.938;2023-04-06T07:37:12;2.50;99.20
698;DHT22;331;48.414;9.938;2023-04-06T07:39:39;2.40;99.20
698;DHT22;331;48.414;9.938;2023-04-06T07:42:06;2.50;99.30
698;DHT22;331;48.414;9.938;2023-04-06T07:44:35;2.50;99.40
698;DHT22;331;48.414;9.938;2023-04-06T07:47:02;2.50;99.40
698;DHT22;331;48.414;9.938;2023-04-06T07:49:29;2.50;99.40
698;DHT22;331;48.414;9.938;2023-04-06T07:51:56;2.50;99.40
698;DHT22;331;48.414;9.938;2023-04-06T07:54:23;2.50;99.50
698;DHT22;331;48.414;9.938;2023-04-06T07:56:50;2.50;99.60
698;DHT22;331;48.414;9.938;2023-04-06T07:59:17;2.50;99.70
698;DHT22;331;48.414;9.938;2023-04-06T08:01:45;2.50;99.60
698;DHT22;331;48.414;9.938;2023-04-06T08:04:12;2.50;99.70
698;DHT22;331;48.414;9.938;2023-04-06T08:06:39;2.50;99.80
698;DHT22;331;48.414;9.938;2023-04-06T08:09:08;2.50;99.80
698;DHT22;331;48.414;9.938;2023-04-06T08:11:35;2.50;99.90
698;DHT22;331;48.414;9.938;2023-04-06T08:14:02;2.50;99.90
698;DHT22;331;48.414;9.938;2023-04-06T08:16:29;2.50;99.90
698;DHT22;331;48.414;9.938;2023-04-06T08:18:57;2.50;99.90
698;DHT22;331;48.414;9.938;2023-04-06T08:21:24;2.50;99.90
698;DHT22;331;48.414;9.938;2023-04-06T08:23:51;2.50;99.90
698;DHT22;331;48.414;9.938;2023-04-06T08:26:18;2.60;99.90
698;DHT22;331;48.414;9.938;2023-04-06T08:28:45;2.60;99.90
698;DHT22;331;48.414;9.938;2023-04-06T08:31:12;2.60;99.90
698;DHT22;331;48.414;9.938;2023-04-06T08:33:39;2.60;99.90
698;DHT22;331;48.414;9.938;2023-04-06T08:36:08;2.60;99.90
698;DHT22;331;48.414;9.938;2023-04-06T08:38:35;2.60;99.90
698;DHT22;331;48.414;9.938;2023-04-06T08:41:06;2.60;99.90
698;DHT22;331;48.414;9.938;2023-04-06T08:43:33;2.70;99.90
698;DHT22;331;48.414;9.938;2023-04-06T08:46:01;2.70;99.90
698;DHT22;331;48.414;9.938;2023-04-06T08:48:28;2.70;99.90
698;DHT22;331;48.414;9.938;2023-04-06T08:50:54;2.70;99.90
698;DHT22;331;48.414;9.938;2023-04-06T08:53:23;2.80;99.90
698;DHT22;331;48.414;9.938;2023-04-06T08:55:50;2.80;99.90
698;DHT22;331;48.414;9.938;2023-04-06T08:58:17;2.70;99.90
698;DHT22;331;48.414;9.938;2023-04-06T09:00:44;2.80;99.90
698;DHT22;331;48.414;9.938;2023-04-06T09:03:11;2.80;99.90
698;DHT22;331;48.414;9.938;2023-04-06T09:05:38;2.80;99.90
698;DHT22;331;48.414;9.938;2023-04-06T09:08:06;2.80;99.90
698;DHT22;331;48.414;9.938;2023-04-06T09:10:34;2.90;99.90
698;DHT22;331;48.414;9.938;2023-04-06T09:13:04;2.90;99.90
698;DHT22;331;48.414;9.938;2023-04-06T09:15:31;2.90;99.90
698;DHT22;331;48.414;9.938;2023-04-06T09:17:58;3.00;99.90
698;DHT22;331;48.414;9.938;2023-04-06T09:20:25;2.90;99.90
698;DHT22;331;48.414;9.938;2023-04-06T09:22:54;3.00;99.90
698;DHT22;331;48.414;9.938;2023-04-06T09:25:21;3.00;99.90
698;DHT22;331;48.414;9.938;2023-04-06T09:27:57;3.00;99.90
698;DHT22;331;48.414;9.938;2023-04-06T09:30:24;3.00;99.90
698;DHT22;331;48.414;9.938;2023-04-06T09:32:52;3.10;99.90
698;DHT22;331;48.414;9.938;2023-04-06T09:35:20;3.20;99.90
698;DHT22;331;48.414;9.938;2023-04-06T09:37:47;3.20;99.90
698;DHT22;331;48.414;9.938;2023-04-06T09:40:14;3.20;99.90
698;DHT22;331;48.414;9.938;2023-04-06T09:42:44;3.20;99.90
698;DHT22;331;48.414;9.938;2023-04-06T09:45:13;3.20;99.90
698;DHT22;331;48.414;9.938;2023-04-06T09:47:40;3.20;99.90
698;DHT22;331;48.414;9.938;2023-04-06T09:50:10;3.30;99.90
698;DHT22;331;48.414;9.938;2023-04-06T09:52:37;3.30;99.90
698;DHT22;331;48.414;9.938;2023-04-06T09:55:07;3.30;99.90
698;DHT22;331;48.414;9.938;2023-04-06T09:57:37;3.40;99.90
698;DHT22;331;48.414;9.938;2023-04-06T10:00:04;3.40;99.90
698;DHT22;331;48.414;9.938;2023-04-06T10:02:39;3.40;99.90
698;DHT22;331;48.414;9.938;2023-04-06T10:05:08;3.40;99.90
698;DHT22;331;48.414;9.938;2023-04-06T10:07:36;3.40;99.90
698;DHT22;331;48.414;9.938;2023-04-06T10:10:04;3.40;99.90
698;DHT22;331;48.414;9.938;2023-04-06T10:12:31;3.40;99.80
698;DHT22;331;48.414;9.938;2023-04-06T10:14:58;3.50;99.80
698;DHT22;331;48.414;9.938;2023-04-06T10:17:25;3.50;99.60
698;DHT22;331;48.414;9.938;2023-04-06T10:19:55;3.60;99.30
698;DHT22;331;48.414;9.938;2023-04-06T10:22:29;3.60;99.50
698;DHT22;331;48.414;9.938;2023-04-06T10:24:58;3.60;99.70
698;DHT22;331;48.414;9.938;2023-04-06T10:27:28;3.60;99.80
698;DHT22;331;48.414;9.938;2023-04-06T10:30:00;3.70;99.30
698;DHT22;331;48.414;9.938;2023-04-06T10:32:31;3.70;99.40
698;DHT22;331;48.414;9.938;2023-04-06T10:35:06;3.70;99.50
698;DHT22;331;48.414;9.938;2023-04-06T10:37:45;3.70;99.50
698;DHT22;331;48.414;9.938;2023-04-06T10:40:17;3.70;99.40
698;DHT22;331;48.414;9.938;2023-04-06T10:42:45;3.70;99.40
698;DHT22;331;48.414;9.938;2023-04-06T10:45:18;3.80;99.40
698;DHT22;331;48.414;9.938;2023-04-06T10:47:46;3.70;99.40
698;DHT22;331;48.414;9.938;2023-04-06T10:50:14;3.80;99.10
698;DHT22;331;48.414;9.938;2023-04-06T10:52:41;3.90;98.90
698;DHT22;331;48.414;9.938;2023-04-06T10:55:09;4.00;98.70
698;DHT22;331;48.414;9.938;2023-04-06T10:57:36;4.00;98.40
698;DHT22;331;48.414;9.938;2023-04-06T11:00:04;4.00;98.30
698;DHT22;331;48.414;9.938;2023-04-06T11:02:31;4.00;98.70
698;DHT22;331;48.414;9.938;2023-04-06T11:04:58;4.00;98.90
698;DHT22;331;48.414;9.938;2023-04-06T11:07:27;3.90;98.70
698;DHT22;331;48.414;9.938;2023-04-06T11:09:55;4.00;98.50
698;DHT22;331;48.414;9.938;2023-04-06T11:12:23;4.00;98.70
698;DHT22;331;48.414;9.938;2023-04-06T11:14:54;4.00;98.90
698;DHT22;331;48.414;9.938;2023-04-06T11:17:25;4.10;98.70
698;DHT22;331;48.414;9.938;2023-04-06T11:19:52;4.20;98.20
698;DHT22;331;48.414;9.938;2023-04-06T11:22:19;4.20;98.00
698;DHT22;331;48.414;9.938;2023-04-06T11:24:47;4.20;98.50
698;DHT22;331;48.414;9.938;2023-04-06T11:27:15;4.20;98.70
698;DHT22;331;48.414;9.938;2023-04-06T11:29:42;4.10;98.90
698;DHT22;331;48.414;9.938;2023-04-06T11:32:11;4.10;99.00
698;DHT22;331;48.414;9.938;2023-04-06T11:34:39;4.20;98.80
698;DHT22;331;48.414;9.938;2023-04-06T11:37:07;4.30;99.00
698;DHT22;331;48.414;9.938;2023-04-06T11:39:37;4.40;98.70
698;DHT22;331;48.414;9.938;2023-04-06T11:42:06;4.50;98.70
698;DHT22;331;48.414;9.938;2023-04-06T11:44:33;4.60;98.40
698;DHT22;331;48.414;9.938;2023-04-06T11:47:01;4.60;98.80
698;DHT22;331;48.414;9.938;2023-04-06T11:49:28;4.60;98.20
698;DHT22;331;48.414;9.938;2023-04-06T11:51:55;4.60;98.20
698;DHT22;331;48.414;9.938;2023-04-06T11:54:31;4.60;98.50
698;DHT22;331;48.414;9.938;2023-04-06T11:56:58;4.80;97.90
698;DHT22;331;48.414;9.938;2023-04-06T11:59:27;4.80;98.20
698;DHT22;331;48.414;9.938;2023-04-06T12:01:54;4.80;97.90
698;DHT22;331;48.414;9.938;2023-04-06T12:04:21;4.70;97.90
698;DHT22;331;48.414;9.938;2023-04-06T12:06:48;4.70;99.00
698;DHT22;331;48.414;9.938;2023-04-06T12:09:15;4.70;99.10
698;DHT22;331;48.414;9.938;2023-04-06T12:11:42;4.70;99.30
698;DHT22;331;48.414;9.938;2023-04-06T12:14:10;4.70;99.50
698;DHT22;331;48.414;9.938;2023-04-06T12:16:38;4.80;99.00
698;DHT22;331;48.414;9.938;2023-04-06T12:19:05;4.70;99.80
698;DHT22;331;48.414;9.938;2023-04-06T12:21:32;4.80;99.20
698;DHT22;331;48.414;9.938;2023-04-06T12:24:00;4.80;99.50
698;DHT22;331;48.414;9.938;2023-04-06T12:26:27;4.90;99.60
698;DHT22;331;48.414;9.938;2023-04-06T12:28:54;4.90;99.30
698;DHT22;331;48.414;9.938;2023-04-06T12:31:21;5.00;99.70
698;DHT22;331;48.414;9.938;2023-04-06T12:33:52;5.10;99.10
698;DHT22;331;48.414;9.938;2023-04-06T12:36:19;5.10;99.20
698;DHT22;331;48.414;9.938;2023-04-06T12:38:47;5.10;99.20
698;DHT22;331;48.414;9.938;2023-04-06T12:41:14;5.00;99.60
698;DHT22;331;48.414;9.938;2023-04-06T12:43:41;5.00;99.80
698;DHT22;331;48.414;9.938;2023-04-06T12:46:08;5.00;99.90
698;DHT22;331;48.414;9.938;2023-04-06T12:48:35;4.90;99.90
698;DHT22;331;48.414;9.938;2023-04-06T12:51:04;4.90;99.80
698;DHT22;331;48.414;9.938;2023-04-06T12:53:32;4.90;99.90
698;DHT22;331;48.414;9.938;2023-04-06T12:55:59;4.90;99.90
698;DHT22;331;48.414;9.938;2023-04-06T12:58:26;4.90;99.90
698;DHT22;331;48.414;9.938;2023-04-06T13:00:53;4.90;99.90
698;DHT22;331;48.414;9.938;2023-04-06T13:03:21;4.90;99.90
698;DHT22;331;48.414;9.938;2023-04-06T13:05:48;4.90;99.90
698;DHT22;331;48.414;9.938;2023-04-06T13:08:17;5.00;99.90
698;DHT22;331;48.414;9.938;2023-04-06T13:10:46;5.00;99.90
698;DHT22;331;48.414;9.938;2023-04-06T13:13:13;5.00;99.90
698;DHT22;331;48.414;9.938;2023-04-06T13:15:40;5.00;99.90
698;DHT22;331;48.414;9.938;2023-04-06T13:18:08;5.20;99.90
698;DHT22;331;48.414;9.938;2023-04-06T13:20:35;5.30;99.90
698;DHT22;331;48.414;9.938;2023-04-06T13:23:02;5.50;99.70
698;DHT22;331;48.414;9.938;2023-04-06T13:25:30;5.50;99.50
698;DHT22;331;48.414;9.938;2023-04-06T13:27:58;5.50;99.90
698;DHT22;331;48.414;9.938;2023-04-06T13:30:25;5.40;99.90
698;DHT22;331;48.414;9.938;2023-04-06T13:32:52;5.40;99.90
698;DHT22;331;48.414;9.938;2023-04-06T13:35:19;5.40;99.90
698;DHT22;331;48.414;9.938;2023-04-06T13:37:45;5.40;99.90
698;DHT22;331;48.414;9.938;2023-04-06T13:40:13;5.40;99.90
698;DHT22;331;48.414;9.938;2023-04-06T13:42:42;5.40;99.90
698;DHT22;331;48.414;9.938;2023-04-06T13:45:10;5.40;99.90
698;DHT22;331;48.414;9.938;2023-04-06T13:47:37;5.50;99.90
698;DHT22;331;48.414;9.938;2023-04-06T13:50:05;5.50;99.90
698;DHT22;331;48.414;9.938;2023-04-06T13:52:32;5.50;99.90
698;DHT22;331;48.414;9.938;2023-04-06T13:55:00;5.50;99.90
698;DHT22;331;48.414;9.938;2023-04-06T13:57:27;5.50;99.90
698;DHT22;331;48.414;9.938;2023-04-06T13:59:56;5.60;99.60
698;DHT22;331;48.414;9.938;2023-04-06T14:02:23;5.70;99.90
698;DHT22;331;48.414;9.938;2023-04-06T14:04:52;5.80;99.90
698;DHT22;331;48.414;9.938;2023-04-06T14:07:20;5.90;99.90
698;DHT22;331;48.414;9.938;2023-04-06T14:09:47;6.00;99.90
698;DHT22;331;48.414;9.938;2023-04-06T14:12:13;6.10;99.10
698;DHT22;331;48.414;9.938;2023-04-06T14:14:40;6.20;98.90
698;DHT22;331;48.414;9.938;2023-04-06T14:17:08;6.30;99.50
698;DHT22;331;48.414;9.938;2023-04-06T14:19:35;6.20;99.90
698;DHT22;331;48.414;9.938;2023-04-06T14:22:03;6.40;99.10
698;DHT22;331;48.414;9.938;2023-04-06T14:24:30;6.40;99.60
698;DHT22;331;48.414;9.938;2023-04-06T14:26:57;6.40;99.50
698;DHT22;331;48.414;9.938;2023-04-06T14:29:24;6.60;99.20
698;DHT22;331;48.414;9.938;2023-04-06T14:31:50;6.60;98.20
698;DHT22;331;48.414;9.938;2023-04-06T14:34:19;6.70;99.00
698;DHT22;331;48.414;9.938;2023-04-06T14:36:46;6.60;99.90
698;DHT22;331;48.414;9.938;2023-04-06T14:39:13;6.60;99.90
698;DHT22;331;48.414;9.938;2023-04-06T14:41:40;6.60;99.90
698;DHT22;331;48.414;9.938;2023-04-06T14:44:06;6.70;99.60
698;DHT22;331;48.414;9.938;2023-04-06T14:46:37;6.90;98.70
698;DHT22;331;48.414;9.938;2023-04-06T14:49:04;6.80;99.40
698;DHT22;331;48.414;9.938;2023-04-06T14:51:33;6.80;99.50
698;DHT22;331;48.414;9.938;2023-04-06T14:54:00;6.90;99.60
698;DHT22;331;48.414;9.938;2023-04-06T14:56:28;6.90;98.80
698;DHT22;331;48.414;9.938;2023-04-06T14:58:57;7.00;99.80
698;DHT22;331;48.414;9.938;2023-04-06T15:01:24;7.00;99.90
698;DHT22;331;48.414;9.938;2023-04-06T15:03:51;7.00;99.90
698;DHT22;331;48.414;9.938;2023-04-06T15:06:17;7.00;99.90
698;DHT22;331;48.414;9.938;2023-04-06T15:08:47;7.10;99.90
698;DHT22;331;48.414;9.938;2023-04-06T15:11:14;7.10;99.90
698;DHT22;331;48.414;9.938;2023-04-06T15:13:41;7.10;99.90
698;DHT22;331;48.414;9.938;2023-04-06T15:16:08;7.10;99.90
698;DHT22;331;48.414;9.938;2023-04-06T15:18:34;7.20;99.60
698;DHT22;331;48.414;9.938;2023-04-06T15:21:01;7.10;99.90
698;DHT22;331;48.414;9.938;2023-04-06T15:23:29;7.10;99.90
698;DHT22;331;48.414;9.938;2023-04-06T15:25:57;7.20;99.90
698;DHT22;331;48.414;9.938;2023-04-06T15:28:24;7.20;99.90
698;DHT22;331;48.414;9.938;2023-04-06T15:30:51;7.20;99.90
698;DHT22;331;48.414;9.938;2023-04-06T15:33:19;7.20;99.90
698;DHT22;331;48.414;9.938;2023-04-06T15:35:46;7.20;99.90
698;DHT22;331;48.414;9.938;2023-04-06T15:38:13;7.20;99.90
698;DHT22;331;48.414;9.938;2023-04-06T15:40:44;7.20;99.90
698;DHT22;331;48.414;9.938;2023-04-06T15:43:12;7.20;99.90
698;DHT22;331;48.414;9.938;2023-04-06T15:45:40;7.20;99.90
698;DHT22;331;48.414;9.938;2023-04-06T15:48:07;7.20;99.90
698;DHT22;331;48.414;9.938;2023-04-06T15:50:34;7.30;99.90
698;DHT22;331;48.414;9.938;2023-04-06T15:53:01;7.40;99.90
698;DHT22;331;48.414;9.938;2023-04-06T15:55:27;7.40;99.90
698;DHT22;331;48.414;9.938;2023-04-06T15:57:54;7.40;99.30
698;DHT22;331;48.414;9.938;2023-04-06T16:00:23;7.50;98.40
698;DHT22;331;48.414;9.938;2023-04-06T16:02:49;7.50;99.10
698;DHT22;331;48.414;9.938;2023-04-06T16:05:16;7.50;99.30
698;DHT22;331;48.414;9.938;2023-04-06T16:07:43;7.50;99.30
698;DHT22;331;48.414;9.938;2023-04-06T16:10:10;7.60;99.20
698;DHT22;331;48.414;9.938;2023-04-06T16:12:37;7.50;99.50
698;DHT22;331;48.414;9.938;2023-04-06T16:15:07;7.50;99.40
698;DHT22;331;48.414;9.938;2023-04-06T16:17:35;7.60;98.70
698;DHT22;331;48.414;9.938;2023-04-06T16:20:02;7.60;98.90
698;DHT22;331;48.414;9.938;2023-04-06T16:22:29;7.60;99.10
698;DHT22;331;48.414;9.938;2023-04-06T16:24:56;7.60;99.90
698;DHT22;331;48.414;9.938;2023-04-06T16:27:22;7.60;99.00
698;DHT22;331;48.414;9.938;2023-04-06T16:29:49;7.70;98.80
698;DHT22;331;48.414;9.938;2023-04-06T16:32:16;7.70;99.90
698;DHT22;331;48.414;9.938;2023-04-06T16:34:44;7.60;99.90
698;DHT22;331;48.414;9.938;2023-04-06T16:37:12;7.60;99.90
698;DHT22;331;48.414;9.938;2023-04-06T16:39:39;7.70;99.90
698;DHT22;331;48.414;9.938;2023-04-06T16:42:05;7.60;99.90
698;DHT22;331;48.414;9.938;2023-04-06T16:44:32;7.60;99.90
698;DHT22;331;48.414;9.938;2023-04-06T16:47:01;7.70;99.90
698;DHT22;331;48.414;9.938;2023-04-06T16:49:28;7.70;99.90
698;DHT22;331;48.414;9.938;2023-04-06T16:51:56;7.70;99.90
698;DHT22;331;48.414;9.938;2023-04-06T16:54:27;7.70;99.90
698;DHT22;331;48.414;9.938;2023-04-06T16:56:54;7.70;99.90
698;DHT22;331;48.414;9.938;2023-04-06T16:59:21;7.70;99.90